Time;durP1;ratioP1;P1;durP2;ratioP2;P2;SDS_P1;SDS_P2;PMS_P1;PMS_P2;Temp;Humidity;BMP_temperature;BMP_pressure;BME280_temperature;BME280_humidity;BME280_pressure;Samples;Min_cycle;Max_cycle;Signal;HPM_P1;HPM_P2
2023/12/30 00:01:20;;;;;;;36.33;23.37;;;;;;;4.13;100.00;100505.48;1450892;89;21378;-79
2023/12/30 00:03:46;;;;;;;33.73;23.87;;;;;;;4.12;100.00;100506.43;1451416;89;21414;-79
2023/12/30 00:06:19;;;;;;;48.40;25.30;;;;;;;4.13;100.00;100505.48;1451975;89;21269;-78
2023/12/30 00:08:46;;;;;;;44.83;24.37;;;;;;;4.11;100.00;100505.56;1452006;89;22412;-79
2023/12/30 00:11:14;;;;;;;33.20;23.17;;;;;;;4.12;100.00;100506.43;1453922;89;21407;-79
2023/12/30 00:13:41;;;;;;;31.97;21.33;;;;;;;4.11;100.00;100504.73;1445316;89;21341;-79
2023/12/30 00:16:13;;;;;;;33.83;21.93;;;;;;;4.11;100.00;100508.19;1451113;89;21507;-79
2023/12/30 00:18:41;;;;;;;40.07;24.27;;;;;;;4.10;100.00;100510.92;1452363;89;21451;-79
2023/12/30 00:21:08;;;;;;;34.70;23.30;;;;;;;4.09;100.00;100510.57;1458310;89;22354;-79
2023/12/30 00:23:35;;;;;;;38.20;24.80;;;;;;;4.09;100.00;100505.33;1453741;89;21548;-79
2023/12/30 00:26:03;;;;;;;39.30;24.33;;;;;;;4.09;100.00;100502.71;1459813;89;21429;-78
2023/12/30 00:28:30;;;;;;;37.97;22.00;;;;;;;4.09;100.00;100500.09;1457923;89;21407;-79
2023/12/30 00:30:57;;;;;;;61.97;22.80;;;;;;;4.09;100.00;100500.09;1461016;89;21415;-78
2023/12/30 00:33:24;;;;;;;36.87;24.57;;;;;;;4.10;100.00;100501.76;1454235;89;21319;-81
2023/12/30 00:35:51;;;;;;;33.97;22.53;;;;;;;4.11;100.00;100496.88;1454565;88;21422;-77
2023/12/30 00:38:18;;;;;;;40.97;23.90;;;;;;;4.12;100.00;100503.81;1459262;89;21349;-79
2023/12/30 00:40:45;;;;;;;36.93;23.93;;;;;;;4.05;100.00;100510.75;1452213;89;22280;-77
2023/12/30 00:43:12;;;;;;;39.63;23.90;;;;;;;3.93;100.00;100506.34;1463604;89;21483;-79
2023/12/30 00:45:39;;;;;;;37.37;22.60;;;;;;;3.84;100.00;100510.90;1456429;89;21355;-78
2023/12/30 00:48:07;;;;;;;38.30;22.73;;;;;;;3.80;100.00;100512.05;1439752;89;21407;-78
2023/12/30 00:50:34;;;;;;;42.27;22.80;;;;;;;3.72;100.00;100513.03;1450161;89;21409;-79
2023/12/30 00:53:01;;;;;;;39.47;21.37;;;;;;;3.64;100.00;100512.69;1459274;89;21363;-78
2023/12/30 00:55:28;;;;;;;33.93;21.70;;;;;;;3.59;100.00;100514.29;1456538;89;22510;-80
2023/12/30 00:57:56;;;;;;;33.30;22.07;;;;;;;3.53;100.00;100510.30;1455877;89;21377;-78
2023/12/30 01:00:23;;;;;;;35.10;21.63;;;;;;;3.42;100.00;100498.37;1454952;89;21408;-78
2023/12/30 01:02:50;;;;;;;32.43;21.40;;;;;;;3.42;100.00;100498.37;1457696;89;21496;-77
2023/12/30 01:05:17;;;;;;;34.13;21.17;;;;;;;3.45;100.00;100505.19;1455137;89;21370;-77
2023/12/30 01:07:44;;;;;;;31.37;21.03;;;;;;;3.34;100.00;100511.14;1458935;89;21333;-78
2023/12/30 01:10:11;;;;;;;34.40;20.77;;;;;;;3.29;100.00;100514.52;1453755;89;21688;-78
2023/12/30 01:12:38;;;;;;;33.47;21.40;;;;;;;3.22;100.00;100506.68;1455641;89;21805;-78
2023/12/30 01:15:07;;;;;;;33.20;21.90;;;;;;;3.22;100.00;100506.68;1451215;89;22212;-77
2023/12/30 01:17:34;;;;;;;40.20;22.57;;;;;;;3.23;100.00;100508.37;1456111;89;21356;-78
2023/12/30 01:20:02;;;;;;;32.37;21.23;;;;;;;3.26;100.00;100504.26;1453361;89;21335;-78
2023/12/30 01:22:30;;;;;;;33.23;21.53;;;;;;;3.24;100.00;100516.11;1456511;89;21492;-78
2023/12/30 01:24:57;;;;;;;33.30;22.73;;;;;;;3.24;100.00;100516.11;1455958;89;21437;-79
2023/12/30 01:27:24;;;;;;;33.70;22.87;;;;;;;3.28;100.00;100506.28;1463010;89;21378;-78
2023/12/30 01:29:52;;;;;;;45.13;23.67;;;;;;;3.34;100.00;100509.36;1464950;89;21333;-79
2023/12/30 01:32:19;;;;;;;50.10;26.90;;;;;;;3.38;100.00;100499.53;1456208;89;22087;-79
2023/12/30 01:34:46;;;;;;;54.50;31.53;;;;;;;3.35;100.00;100482.72;1454929;89;22234;-79
2023/12/30 01:37:13;;;;;;;42.97;26.93;;;;;;;3.35;100.00;100482.72;1446411;89;21451;-79
2023/12/30 01:39:40;;;;;;;45.43;26.67;;;;;;;3.36;100.00;100496.16;1457159;89;23163;-79
2023/12/30 01:42:07;;;;;;;42.37;24.83;;;;;;;3.35;100.00;100487.95;1462197;89;21450;-79
2023/12/30 01:44:35;;;;;;;40.20;24.47;;;;;;;3.31;100.00;100481.23;1455044;89;22117;-79
2023/12/30 01:47:05;;;;;;;32.83;21.97;;;;;;;3.28;100.00;100484.05;1459861;89;22990;-79
2023/12/30 01:49:32;;;;;;;34.30;21.53;;;;;;;3.25;100.00;100485.55;1449754;89;21340;-79
2023/12/30 01:51:59;;;;;;;34.73;21.90;;;;;;;3.20;100.00;100487.18;1457415;89;21429;-79
2023/12/30 01:54:27;;;;;;;39.30;22.47;;;;;;;3.11;100.00;100489.92;1452603;89;22054;-78
2023/12/30 01:56:54;;;;;;;33.43;21.23;;;;;;;2.97;100.00;100497.80;1451861;89;22029;-78
2023/12/30 01:59:22;;;;;;;36.53;22.27;;;;;;;2.86;100.00;100501.08;1458319;89;22937;-79
2023/12/30 02:01:50;;;;;;;36.87;22.40;;;;;;;2.76;100.00;100496.05;1450948;89;22079;-79
2023/12/30 02:04:17;;;;;;;40.10;22.37;;;;;;;2.67;100.00;100498.77;1455513;89;22138;-79
2023/12/30 02:06:44;;;;;;;36.70;23.37;;;;;;;2.60;100.00;100492.73;1452091;89;23257;-79
2023/12/30 02:09:12;;;;;;;34.07;21.90;;;;;;;2.56;100.00;100493.39;1453102;89;22326;-78
2023/12/30 02:11:40;;;;;;;35.27;21.63;;;;;;;2.51;100.00;100491.52;1443367;89;22071;-79
2023/12/30 02:14:30;;;;;;;46.30;23.43;;;;;;;2.45;100.00;100491.91;1459586;89;22110;-79
2023/12/30 02:16:58;;;;;;;37.47;22.37;;;;;;;2.35;100.00;100492.08;1459524;89;22125;-78
2023/12/30 02:19:25;;;;;;;38.87;23.27;;;;;;;2.26;100.00;100490.87;1454802;89;22109;-79
2023/12/30 02:21:53;;;;;;;37.73;23.87;;;;;;;2.18;100.00;100493.93;1452886;89;22088;-78
2023/12/30 02:24:21;;;;;;;35.83;22.20;;;;;;;2.13;100.00;100491.22;1442133;89;22227;-78
2023/12/30 02:26:48;;;;;;;37.13;21.33;;;;;;;2.10;100.00;100496.19;1459578;89;22139;-80
2023/12/30 02:29:15;;;;;;;34.10;21.70;;;;;;;2.06;100.00;100493.37;1447580;89;23182;-78
2023/12/30 02:31:48;;;;;;;35.60;22.00;;;;;;;2.04;100.00;100493.91;1457907;89;22071;-77
2023/12/30 02:34:17;;;;;;;33.87;22.13;;;;;;;2.02;100.00;100495.80;1453390;89;22338;-79
2023/12/30 02:36:46;;;;;;;43.07;26.53;;;;;;;1.94;100.00;100492.33;1454061;89;22056;-77
2023/12/30 02:39:14;;;;;;;38.90;22.07;;;;;;;1.87;100.00;100496.25;1456354;89;23065;-77
2023/12/30 02:41:42;;;;;;;35.10;23.50;;;;;;;1.85;100.00;100495.48;1454278;89;22132;-77
2023/12/30 02:44:09;;;;;;;43.53;23.07;;;;;;;1.75;100.00;100489.95;1439264;89;23009;-78
2023/12/30 02:46:36;;;;;;;36.10;22.90;;;;;;;1.73;100.00;100487.91;1454273;89;22112;-78
2023/12/30 02:49:04;;;;;;;36.90;22.17;;;;;;;1.73;100.00;100487.91;1460200;89;22923;-77
2023/12/30 02:51:32;;;;;;;32.63;22.83;;;;;;;1.79;100.00;100499.77;1447890;89;23187;-78
2023/12/30 02:54:00;;;;;;;32.53;20.30;;;;;;;1.80;100.00;100491.83;1461088;89;22033;-77
2023/12/30 02:56:27;;;;;;;33.73;20.00;;;;;;;1.76;100.00;100486.43;1456385;89;21915;-77
2023/12/30 02:59:00;;;;;;;35.67;22.43;;;;;;;1.82;100.00;100496.14;1451599;89;21985;-78
2023/12/30 03:01:32;;;;;;;36.43;24.20;;;;;;;1.86;100.00;100502.84;1457420;89;22070;-79
2023/12/30 03:04:01;;;;;;;39.00;24.60;;;;;;;1.86;100.00;100502.84;1454684;89;22108;-78
2023/12/30 03:06:28;;;;;;;32.07;21.43;;;;;;;1.86;100.00;100502.84;1449689;89;22065;-78
2023/12/30 03:08:55;;;;;;;31.47;21.17;;;;;;;1.88;100.00;100490.09;1456581;89;22157;-79
2023/12/30 03:11:23;;;;;;;35.73;22.17;;;;;;;1.88;100.00;100490.09;1450855;89;22013;-79
2023/12/30 03:13:51;;;;;;;35.27;22.60;;;;;;;1.93;100.00;100476.77;1452964;89;21836;-79
2023/12/30 03:16:19;;;;;;;35.70;22.73;;;;;;;1.93;100.00;100476.77;1456656;89;22057;-79
2023/12/30 03:18:46;;;;;;;33.73;22.30;;;;;;;1.99;100.00;100477.71;1454447;89;22123;-79
2023/12/30 03:21:16;;;;;;;35.37;21.80;;;;;;;2.03;100.00;100476.59;1459416;89;22063;-79
2023/12/30 03:23:43;;;;;;;36.25;23.57;;;;;;;2.10;100.00;100478.35;1459278;89;22296;-79
2023/12/30 03:26:11;;;;;;;35.23;23.40;;;;;;;2.16;100.00;100487.15;1455720;89;22434;-79
2023/12/30 03:28:38;;;;;;;34.23;23.17;;;;;;;2.21;100.00;100481.99;1456069;89;22109;-79
2023/12/30 03:31:07;;;;;;;37.43;24.30;;;;;;;2.25;100.00;100486.59;1452313;89;23136;-79
2023/12/30 03:33:34;;;;;;;40.10;23.03;;;;;;;2.25;100.00;100482.20;1452711;89;22086;-78
2023/12/30 03:36:01;;;;;;;39.03;22.77;;;;;;;2.29;100.00;100482.02;1450991;89;22147;-79
2023/12/30 03:38:28;;;;;;;36.10;22.07;;;;;;;2.28;100.00;100482.95;1444506;89;23055;-79
2023/12/30 03:40:57;;;;;;;37.17;22.23;;;;;;;2.29;100.00;100482.02;1459533;89;22106;-78
2023/12/30 03:43:24;;;;;;;40.00;22.97;;;;;;;2.23;100.00;100467.08;1423429;89;22168;-79
2023/12/30 03:45:51;;;;;;;36.83;23.30;;;;;;;2.31;100.00;100471.02;1460017;89;22953;-80
2023/12/30 03:48:18;;;;;;;32.70;21.27;;;;;;;2.34;100.00;100467.73;1452828;89;22294;-79
2023/12/30 03:50:45;;;;;;;36.83;25.13;;;;;;;2.35;100.00;100462.05;1450676;89;22943;-79
2023/12/30 03:53:12;;;;;;;34.27;23.37;;;;;;;2.39;100.00;100462.24;1461381;89;22035;-80
2023/12/30 03:55:40;;;;;;;39.13;25.43;;;;;;;2.41;100.00;100457.27;1437936;89;22922;-80
2023/12/30 03:58:07;;;;;;;40.70;24.90;;;;;;;2.44;100.00;100456.25;1456702;89;21968;-79
2023/12/30 04:00:34;;;;;;;41.77;23.83;;;;;;;2.47;100.00;100454.75;1455231;89;22036;-79
2023/12/30 04:03:01;;;;;;;40.77;25.30;;;;;;;2.49;100.00;100447.19;1424800;89;22926;-78
2023/12/30 04:05:28;;;;;;;52.10;28.13;;;;;;;2.54;100.00;100445.61;1455869;89;22264;-79
2023/12/30 04:07:55;;;;;;;38.13;25.47;;;;;;;2.57;100.00;100444.11;1451336;89;21970;-79
2023/12/30 04:10:22;;;;;;;37.20;22.93;;;;;;;2.60;100.00;100445.22;1457394;89;22073;-79
2023/12/30 04:12:49;;;;;;;40.37;25.27;;;;;;;2.62;100.00;100449.89;1459769;89;22042;-80
2023/12/30 04:15:16;;;;;;;37.33;25.10;;;;;;;2.66;100.00;100444.83;1454705;89;22342;-80
2023/12/30 04:17:43;;;;;;;41.77;25.70;;;;;;;2.69;100.00;100440.72;1454448;89;22937;-80
2023/12/30 04:20:11;;;;;;;40.53;25.13;;;;;;;2.73;100.00;100428.28;1464945;89;22301;-79
2023/12/30 04:22:38;;;;;;;41.67;26.27;;;;;;;2.75;100.00;100433.43;1455942;89;22198;-79
2023/12/30 04:25:06;;;;;;;37.90;24.70;;;;;;;2.79;100.00;100432.28;1457719;89;22145;-79
2023/12/30 04:27:34;;;;;;;36.33;24.30;;;;;;;2.80;100.00;100430.06;1452170;89;22080;-77
2023/12/30 04:30:01;;;;;;;37.23;22.93;;;;;;;2.83;100.00;100432.48;1455178;89;22073;-77
2023/12/30 04:32:28;;;;;;;44.33;26.97;;;;;;;2.83;100.00;100429.87;1457254;89;23072;-76
2023/12/30 04:34:55;;;;;;;60.37;28.30;;;;;;;2.86;100.00;100427.05;1437621;89;22009;-76
2023/12/30 04:37:22;;;;;;;35.90;23.53;;;;;;;2.89;100.00;100424.24;1459393;89;22143;-77
2023/12/30 04:39:49;;;;;;;37.63;24.77;;;;;;;2.92;100.00;100421.43;1437617;89;22176;-77
2023/12/30 04:42:17;;;;;;;37.00;24.50;;;;;;;2.93;100.00;100435.72;1455526;89;22058;-77
2023/12/30 04:44:44;;;;;;;38.53;24.23;;;;;;;2.96;100.00;100441.67;1455188;89;22110;-77
2023/12/30 04:47:11;;;;;;;36.63;25.17;;;;;;;2.97;100.00;100450.73;1457588;89;22059;-77
2023/12/30 04:49:38;;;;;;;37.93;22.60;;;;;;;2.99;100.00;100451.45;1456445;89;22997;-77
2023/12/30 04:52:05;;;;;;;42.03;25.30;;;;;;;2.99;100.00;100450.15;1458549;89;22080;-77
2023/12/30 04:54:33;;;;;;;38.27;25.37;;;;;;;3.00;100.00;100445.31;1453665;89;22029;-77
2023/12/30 04:57:00;;;;;;;37.37;23.27;;;;;;;3.00;100.00;100449.23;1454943;89;23073;-77
2023/12/30 04:59:27;;;;;;;36.33;23.50;;;;;;;3.00;100.00;100450.54;1459665;89;22072;-78
2023/12/30 05:01:54;;;;;;;36.90;21.90;;;;;;;2.99;100.00;100456.69;1452452;89;22058;-78
2023/12/30 05:04:21;;;;;;;36.07;24.33;;;;;;;2.91;100.00;100468.13;1448513;89;22183;-78
2023/12/30 05:06:50;;;;;;;39.47;22.70;;;;;;;2.84;100.00;100480.73;1452020;89;22065;-79
2023/12/30 05:09:17;;;;;;;40.97;25.90;;;;;;;2.76;100.00;100480.36;1459598;89;22059;-80
2023/12/30 05:11:45;;;;;;;38.93;24.33;;;;;;;2.71;100.00;100480.67;1454548;89;22049;-79
2023/12/30 05:14:12;;;;;;;47.10;28.30;;;;;;;2.70;100.00;100477.70;1457690;89;22080;-79
2023/12/30 05:16:46;;;;;;;42.90;26.57;;;;;;;2.68;100.00;100477.42;1462231;89;22282;-79
2023/12/30 05:19:13;;;;;;;40.33;25.87;;;;;;;2.66;100.00;100476.19;1443811;89;22332;-79
2023/12/30 05:21:40;;;;;;;46.50;25.60;;;;;;;2.67;100.00;100477.86;1458135;89;22320;-79
2023/12/30 05:24:08;;;;;;;38.60;24.73;;;;;;;2.73;100.00;100469.27;1444392;89;22164;-79
2023/12/30 05:26:35;;;;;;;41.53;25.80;;;;;;;2.76;100.00;100465.16;1460295;89;23093;-79
2023/12/30 05:29:02;;;;;;;43.47;24.83;;;;;;;2.78;100.00;100456.76;1455868;89;22252;-78
2023/12/30 05:31:29;;;;;;;39.97;24.97;;;;;;;2.79;100.00;100450.59;1454413;89;22036;-78
2023/12/30 05:33:57;;;;;;;42.73;26.33;;;;;;;2.66;100.00;100431.77;1460721;89;22236;-79
2023/12/30 05:36:24;;;;;;;42.07;26.27;;;;;;;2.71;100.00;100445.39;1455148;89;22376;-79
2023/12/30 05:38:51;;;;;;;43.53;27.50;;;;;;;2.71;100.00;100442.78;1458291;89;22119;-79
2023/12/30 05:41:18;;;;;;;42.90;25.90;;;;;;;2.70;100.00;100445.03;1453437;89;23540;-79
2023/12/30 05:43:45;;;;;;;42.13;24.27;;;;;;;2.70;100.00;100445.03;1450841;89;22116;-79
2023/12/30 05:46:16;;;;;;;38.97;24.63;;;;;;;2.67;100.00;100446.50;1457154;89;22967;-79
2023/12/30 05:48:44;;;;;;;39.58;25.90;;;;;;;2.67;100.00;100437.83;1450506;89;22065;-79
2023/12/30 05:51:11;;;;;;;48.20;25.17;;;;;;;2.68;100.00;100429.08;1462728;89;21571;-79
2023/12/30 05:53:41;;;;;;;37.60;24.10;;;;;;;2.69;100.00;100422.89;1453838;89;22091;-79
2023/12/30 05:56:08;;;;;;;46.47;24.03;;;;;;;2.68;100.00;100435.13;1456034;89;23277;-79
2023/12/30 05:58:37;;;;;;;33.27;22.20;;;;;;;2.66;100.00;100443.53;1442881;89;22010;-79
2023/12/30 06:01:04;;;;;;;45.67;25.37;;;;;;;2.64;100.00;100459.77;1451216;89;22611;-78
2023/12/30 06:03:31;;;;;;;35.60;25.07;;;;;;;2.61;100.00;100465.18;1450778;89;23123;-78
2023/12/30 06:05:59;;;;;;;45.07;26.73;;;;;;;2.60;100.00;100470.52;1443074;89;22213;-78
2023/12/30 06:08:26;;;;;;;43.90;26.40;;;;;;;2.59;100.00;100478.83;1454162;89;21992;-78
2023/12/30 06:10:53;;;;;;;48.03;27.50;;;;;;;2.58;100.00;100478.91;1457114;89;22059;-79
2023/12/30 06:13:20;;;;;;;42.80;27.20;;;;;;;2.58;100.00;100473.69;1452595;89;22097;-78
2023/12/30 06:15:50;;;;;;;42.03;26.30;;;;;;;2.61;100.00;100472.19;1455405;89;22023;-77
2023/12/30 06:18:18;;;;;;;40.53;27.53;;;;;;;2.57;100.00;100456.34;1449360;89;22117;-78
2023/12/30 06:20:46;;;;;;;40.67;26.30;;;;;;;2.60;100.00;100463.52;1454103;89;23131;-78
2023/12/30 06:23:14;;;;;;;48.70;26.30;;;;;;;2.60;100.00;100465.30;1454159;89;22019;-79
2023/12/30 06:25:42;;;;;;;39.27;25.77;;;;;;;2.60;100.00;100465.30;1457901;89;22090;-78
2023/12/30 06:28:09;;;;;;;46.37;26.90;;;;;;;2.57;100.00;100463.70;1454037;89;22086;-79
2023/12/30 06:30:36;;;;;;;47.43;27.57;;;;;;;2.56;100.00;100468.57;1449625;89;22143;-79
2023/12/30 06:33:08;;;;;;;40.83;25.83;;;;;;;2.55;100.00;100468.18;1443072;89;22676;-79
2023/12/30 06:35:35;;;;;;;36.17;25.37;;;;;;;2.54;100.00;100469.12;1454942;89;22503;-78
2023/12/30 06:38:03;;;;;;;42.57;25.17;;;;;;;2.55;100.00;100466.88;1459472;89;23074;-78
2023/12/30 06:40:30;;;;;;;38.43;25.83;;;;;;;2.59;100.00;100477.97;1458480;89;22074;-79
2023/12/30 06:42:57;;;;;;;45.83;27.07;;;;;;;2.63;100.00;100481.61;1453772;89;23061;-79
2023/12/30 06:45:24;;;;;;;108.47;53.10;;;;;;;2.69;100.00;100485.14;1450891;89;22126;-81
2023/12/30 06:47:51;;;;;;;123.30;57.57;;;;;;;2.73;100.00;100473.19;1464494;89;22070;-80
2023/12/30 06:50:20;;;;;;;80.53;43.10;;;;;;;2.77;100.00;100472.08;1454254;89;22123;-82
2023/12/30 06:52:47;;;;;;;68.07;39.87;;;;;;;2.77;100.00;100479.92;1455701;89;22111;-80
2023/12/30 06:55:14;;;;;;;46.83;28.30;;;;;;;2.78;100.00;100485.52;1457695;89;22093;-80
2023/12/30 06:57:42;;;;;;;41.30;27.47;;;;;;;2.79;100.00;100480.64;1453488;89;21370;-80
2023/12/30 07:00:09;;;;;;;40.00;25.50;;;;;;;2.78;100.00;100486.81;1455416;89;22289;-80
2023/12/30 07:02:37;;;;;;;42.13;25.63;;;;;;;2.79;100.00;100485.43;1454311;89;21999;-80
2023/12/30 07:05:07;;;;;;;43.77;27.33;;;;;;;2.80;100.00;100486.27;1457723;89;22189;-80
2023/12/30 07:07:35;;;;;;;43.13;26.07;;;;;;;2.84;100.00;100494.27;1454898;89;22223;-80
2023/12/30 07:10:05;;;;;;;52.63;34.00;;;;;;;2.86;100.00;100493.24;1451339;89;21856;-82
2023/12/30 07:12:32;;;;;;;47.70;31.17;;;;;;;2.90;100.00;100496.49;1453779;89;22622;-82
2023/12/30 07:15:00;;;;;;;59.97;36.90;;;;;;;2.91;100.00;100498.19;1458172;89;22294;-84
2023/12/30 07:21:28;;;;;;;74.15;54.08;;;;;;;3.01;100.00;100509.73;1457026;89;23142;-81
2023/12/30 07:23:56;;;;;;;38.30;26.10;;;;;;;3.05;100.00;100516.46;1450300;89;21414;-81
2023/12/30 07:26:23;;;;;;;46.87;27.53;;;;;;;3.07;100.00;100528.95;1454023;89;22174;-81
2023/12/30 07:28:50;;;;;;;49.50;28.70;;;;;;;3.09;100.00;100528.39;1455644;89;22963;-81
2023/12/30 07:31:17;;;;;;;45.60;28.27;;;;;;;3.09;100.00;100530.17;1454278;89;22653;-81
2023/12/30 07:33:44;;;;;;;44.03;26.80;;;;;;;3.10;100.00;100531.37;1454573;89;22045;-80
2023/12/30 07:36:12;;;;;;;48.90;30.20;;;;;;;3.10;100.00;100531.37;1423770;89;21496;-81
2023/12/30 07:38:39;;;;;;;44.23;27.33;;;;;;;3.16;100.00;100533.62;1452143;88;22402;-82
2023/12/30 07:41:06;;;;;;;41.20;26.77;;;;;;;3.22;100.00;100533.03;1451177;89;21892;-81
2023/12/30 07:43:33;;;;;;;47.53;29.60;;;;;;;3.32;100.00;100527.40;1457549;89;21393;-81
2023/12/30 07:46:00;;;;;;;45.97;28.33;;;;;;;3.32;100.00;100527.40;1444245;89;21473;-80
2023/12/30 07:48:30;;;;;;;46.23;27.97;;;;;;;3.44;100.00;100533.14;1454361;89;21643;-81
2023/12/30 07:50:56;;;;;;;45.83;29.43;;;;;;;3.47;100.00;100535.56;1459270;89;22337;-80
2023/12/30 07:53:24;;;;;;;45.63;30.00;;;;;;;3.56;100.00;100534.95;1431260;89;21437;-81
2023/12/30 07:55:51;;;;;;;49.50;27.73;;;;;;;3.63;100.00;100534.58;1456630;89;22447;-79
2023/12/30 07:58:18;;;;;;;50.03;27.53;;;;;;;3.70;100.00;100535.84;1456948;89;21333;-79
2023/12/30 08:00:46;;;;;;;44.60;26.83;;;;;;;3.78;100.00;100546.66;1460294;89;21443;-79
2023/12/30 08:03:13;;;;;;;49.10;28.50;;;;;;;3.92;100.00;100543.96;1454081;89;21407;-80
2023/12/30 08:05:42;;;;;;;45.67;29.73;;;;;;;4.01;100.00;100535.48;1460487;89;21547;-82
2023/12/30 08:08:12;;;;;;;42.83;26.17;;;;;;;4.12;100.00;100527.39;1458206;89;21392;-81
2023/12/30 08:10:38;;;;;;;41.97;26.67;;;;;;;4.20;100.00;100527.68;1450649;89;21481;-81
2023/12/30 08:13:06;;;;;;;41.33;27.27;;;;;;;4.27;100.00;100527.64;1454012;89;21540;-82
2023/12/30 08:15:33;;;;;;;38.60;24.57;;;;;;;4.32;100.00;100529.48;1447626;89;22265;-81
2023/12/30 08:18:00;;;;;;;37.67;22.97;;;;;;;4.38;100.00;100529.06;1458838;89;21311;-82
2023/12/30 08:20:27;;;;;;;36.00;23.07;;;;;;;4.50;100.00;100528.69;1447030;89;21377;-82
2023/12/30 08:22:54;;;;;;;35.40;21.87;;;;;;;4.60;100.00;100531.49;1451813;89;21311;-81
2023/12/30 08:25:22;;;;;;;38.20;24.07;;;;;;;4.64;100.00;100535.59;1461832;89;21399;-81
2023/12/30 08:27:49;;;;;;;33.10;23.30;;;;;;;4.80;100.00;100545.84;1448887;89;21547;-82
2023/12/30 08:30:19;;;;;;;36.73;23.77;;;;;;;4.91;100.00;100539.37;1455091;89;21570;-81
2023/12/30 08:32:47;;;;;;;38.90;23.77;;;;;;;5.03;100.00;100535.03;1454235;89;21399;-80
2023/12/30 08:35:14;;;;;;;28.57;20.63;;;;;;;5.16;100.00;100547.65;1444077;89;21621;-80
2023/12/30 08:37:41;;;;;;;36.07;21.77;;;;;;;5.24;100.00;100550.56;1458410;89;21415;-81
2023/12/30 08:40:10;;;;;;;32.87;20.50;;;;;;;5.34;100.00;100558.13;1462446;89;22351;-81
2023/12/30 08:42:38;;;;;;;35.47;22.43;;;;;;;5.52;100.00;100552.01;1451786;89;21422;-81
2023/12/30 08:45:07;;;;;;;31.53;21.90;;;;;;;5.62;100.00;100550.88;1431694;89;21377;-80
2023/12/30 08:47:34;;;;;;;35.23;22.50;;;;;;;5.69;100.00;100556.03;1454931;89;21341;-80
2023/12/30 08:50:03;;;;;;;35.17;20.37;;;;;;;5.79;100.00;100560.97;1457563;89;21289;-80
2023/12/30 08:52:30;;;;;;;36.27;21.43;;;;;;;5.88;100.00;100570.80;1461596;89;22250;-81
2023/12/30 08:54:58;;;;;;;37.30;22.67;;;;;;;5.98;100.00;100568.82;1454614;89;21348;-80
2023/12/30 08:57:25;;;;;;;29.07;19.83;;;;;;;6.12;100.00;100566.00;1453089;89;22435;-80
2023/12/30 08:59:52;;;;;;;31.20;20.83;;;;;;;6.25;100.00;100560.66;1445823;89;21335;-82
2023/12/30 09:02:19;;;;;;;30.50;19.30;;;;;;;6.26;100.00;100555.28;1456949;89;21341;-81
2023/12/30 09:04:46;;;;;;;29.97;19.10;;;;;;;6.38;100.00;100551.36;1431479;89;21541;-80
2023/12/30 09:07:16;;;;;;;29.37;19.93;;;;;;;6.57;100.00;100561.31;1456132;89;21915;-80
2023/12/30 09:09:42;;;;;;;44.23;26.60;;;;;;;6.62;100.00;100556.05;1447343;89;21458;-80
2023/12/30 09:12:09;;;;;;;38.60;24.87;;;;;;;6.71;100.00;100557.12;1448712;89;22309;-80
2023/12/30 09:14:37;;;;;;;34.50;20.63;;;;;;;6.80;100.00;100568.73;1452257;89;21355;-80
2023/12/30 09:17:04;;;;;;;28.57;19.63;;;;;;;6.86;100.00;100569.08;1452976;89;21592;-80
2023/12/30 09:19:31;;;;;;;30.20;20.10;;;;;;;6.90;100.00;100562.60;1451034;89;21531;-80
2023/12/30 09:21:58;;;;;;;30.10;20.50;;;;;;;6.92;100.00;100559.86;1452883;89;21415;-80
2023/12/30 09:24:25;;;;;;;26.87;18.73;;;;;;;6.88;100.00;100551.87;1451178;89;21303;-80
2023/12/30 09:26:52;;;;;;;26.63;19.27;;;;;;;6.87;100.00;100551.48;1452843;89;21875;-80
2023/12/30 09:29:20;;;;;;;27.97;20.27;;;;;;;6.88;100.00;100536.08;1454272;89;21541;-80
2023/12/30 09:31:47;;;;;;;26.07;18.37;;;;;;;6.85;100.00;100531.90;1451204;89;21626;-80
2023/12/30 09:34:14;;;;;;;27.97;18.37;;;;;;;6.81;100.00;100524.36;1449647;89;21561;-79
2023/12/30 09:36:41;;;;;;;27.40;19.27;;;;;;;6.82;100.00;100532.59;1458135;89;21356;-80
2023/12/30 09:39:11;;;;;;;29.90;19.40;;;;;;;6.84;100.00;100531.52;1435222;89;21390;-77
2023/12/30 09:41:41;;;;;;;33.97;21.23;;;;;;;6.88;100.00;100524.24;1446309;89;21489;-83
2023/12/30 09:44:09;;;;;;;26.68;18.98;;;;;;;6.93;100.00;100526.01;1437604;89;21715;-81
2023/12/30 09:46:37;;;;;;;31.63;22.50;;;;;;;6.96;100.00;100520.50;1451405;89;22455;-82
2023/12/30 09:49:07;;;;;;;45.23;23.90;;;;;;;7.03;100.00;100521.70;1455088;89;21333;-82
2023/12/30 09:51:34;;;;;;;26.17;19.00;;;;;;;7.14;100.00;100524.80;1453501;89;21597;-83
2023/12/30 09:54:02;;;;;;;27.47;19.33;;;;;;;7.11;100.00;100528.51;1459490;89;21533;-82
2023/12/30 09:56:30;;;;;;;28.93;21.33;;;;;;;7.05;100.00;100534.27;1449645;89;21363;-82
2023/12/30 09:58:59;;;;;;;30.97;21.53;;;;;;;7.03;100.00;100532.71;1453293;89;21348;-84
2023/12/30 10:06:06;;;;;;;31.60;21.07;;;;;;;7.00;100.00;100524.58;1451432;89;21525;-83
2023/12/30 10:08:34;;;;;;;29.77;21.27;;;;;;;6.99;100.00;100521.56;1446927;89;21377;-82
2023/12/30 10:11:03;;;;;;;33.80;22.43;;;;;;;7.01;100.00;100518.34;1458234;89;22443;-81
2023/12/30 10:13:30;;;;;;;33.10;21.57;;;;;;;6.99;100.00;100512.36;1453951;89;21421;-82
2023/12/30 10:16:02;;;;;;;27.27;20.27;;;;;;;6.99;100.00;100513.67;1453220;89;22303;-82
2023/12/30 10:18:39;;;;;;;30.72;21.27;;;;;;;7.00;100.00;100518.83;1454904;89;22431;-83
2023/12/30 10:21:07;;;;;;;28.80;20.33;;;;;;;6.95;100.00;100511.77;1385902;89;21513;-83
2023/12/30 10:23:35;;;;;;;33.93;23.10;;;;;;;6.94;100.00;100519.80;1380664;89;21304;-84
2023/12/30 10:26:08;;;;;;;37.37;23.07;;;;;;;6.99;100.00;100517.63;1380809;89;21539;-82
2023/12/30 10:28:36;;;;;;;29.00;20.83;;;;;;;7.03;100.00;100514.29;1381581;89;21411;-82
2023/12/30 10:31:06;;;;;;;58.07;33.23;;;;;;;7.04;100.00;100519.41;1381412;89;21246;-81
2023/12/30 10:33:35;;;;;;;26.80;18.57;;;;;;;7.12;100.00;100526.22;1373504;90;21319;-83
2023/12/30 10:36:06;;;;;;;28.13;20.93;;;;;;;7.16;100.00;100523.72;1470127;89;21544;-83
2023/12/30 10:42:24;;;;;;;36.03;24.47;;;;;;;7.50;100.00;100515.70;1358492;95;22405;-83
2023/12/30 10:44:52;;;;;;;28.13;19.87;;;;;;;7.78;100.00;100516.06;1362937;96;22374;-83
2023/12/30 10:47:22;;;;;;;32.03;22.23;;;;;;;7.90;100.00;100509.77;1362582;96;21694;-83
2023/12/30 10:49:54;;;;;;;31.25;21.45;;;;;;;7.96;100.00;100507.93;1361483;96;21495;-81
2023/12/30 10:52:29;;;;;;;26.07;17.90;;;;;;;7.95;100.00;100504.13;1362073;96;21825;-82
2023/12/30 10:55:09;;;;;;;23.83;17.57;;;;;;;7.85;100.00;100500.95;1436287;95;21348;-83
2023/12/30 10:57:39;;;;;;;28.30;18.90;;;;;;;7.84;100.00;100498.42;1413640;96;21392;-82
2023/12/30 11:00:09;;;;;;;26.90;18.87;;;;;;;7.81;100.00;100500.00;1435676;96;21487;-83
2023/12/30 11:02:37;;;;;;;25.90;19.07;;;;;;;7.90;100.00;100500.55;1301689;96;21517;-82
2023/12/30 11:05:09;;;;;;;24.07;18.33;;;;;;;8.03;100.00;100498.56;1399081;96;21377;-83
2023/12/30 11:07:37;;;;;;;29.10;20.80;;;;;;;8.09;100.00;100490.62;1298153;95;21589;-82
2023/12/30 11:10:20;;;;;;;33.07;20.37;;;;;;;8.31;100.00;100493.07;1328596;97;21348;-83
2023/12/30 11:12:47;;;;;;;29.87;20.23;;;;;;;8.61;100.00;100479.58;1295360;96;21420;-83
2023/12/30 11:15:29;;;;;;;27.17;18.47;;;;;;;8.86;100.00;100482.23;1324720;91;21326;-84
2023/12/30 11:17:58;;;;;;;32.73;22.80;;;;;;;9.04;100.00;100473.98;1360938;91;21295;-81
2023/12/30 11:20:28;;;;;;;27.43;18.77;;;;;;;9.33;100.00;100463.11;1356645;91;21458;-84
2023/12/30 11:22:59;;;;;;;32.65;19.75;;;;;;;9.46;100.00;100456.55;1354799;91;22056;-84
2023/12/30 11:25:46;;;;;;;35.53;24.13;;;;;;;9.50;100.00;100457.13;1413544;91;22311;-84